createdAt,value
2022-11-16T00:01:30.343Z,17.45
2022-11-16T00:03:58.162Z,20.92
2022-11-16T00:06:24.473Z,17.30
2022-11-16T00:09:19.677Z,17.23
2022-11-16T00:11:46.688Z,21.05
2022-11-16T00:14:13.069Z,16.40
2022-11-16T00:16:39.581Z,16.65
2022-11-16T00:19:06.249Z,19.40
2022-11-16T00:21:33.017Z,17.40
2022-11-16T00:23:59.813Z,20.88
2022-11-16T00:26:26.405Z,17.77
2022-11-16T00:28:53.765Z,16.80
2022-11-16T00:31:20.861Z,20.10
2022-11-16T00:33:47.554Z,19.13
2022-11-16T00:36:13.897Z,20.83
2022-11-16T00:38:40.492Z,18.25
2022-11-16T00:41:07.451Z,18.52
2022-11-16T00:43:34.277Z,16.10
2022-11-16T00:46:01.042Z,16.15
2022-11-16T00:48:27.544Z,22.42
2022-11-16T00:50:53.979Z,19.40
2022-11-16T00:53:21.497Z,17.75
2022-11-16T00:55:48.554Z,17.35
2022-11-16T00:58:17.356Z,20.90
2022-11-16T01:00:48.647Z,17.87
2022-11-16T01:03:14.971Z,19.35
2022-11-16T01:05:41.470Z,16.00
2022-11-16T01:08:07.815Z,20.70
2022-11-16T01:10:38.258Z,19.75
2022-11-16T01:13:04.623Z,19.70
2022-11-16T01:15:30.952Z,20.10
2022-11-16T01:17:57.425Z,19.55
2022-11-16T01:20:25.735Z,16.48
2022-11-16T01:22:52.274Z,16.77
2022-11-16T01:25:18.702Z,19.95
2022-11-16T01:27:45.072Z,17.65
2022-11-16T01:30:18.069Z,19.70
2022-11-16T01:32:55.120Z,21.38
2022-11-16T01:35:21.610Z,19.75
2022-11-16T01:37:48.040Z,18.88
2022-11-16T01:40:15.276Z,20.35
2022-11-16T01:42:44.469Z,20.70
2022-11-16T01:45:21.327Z,21.42
2022-11-16T01:47:49.999Z,17.13
2022-11-16T01:50:19.556Z,23.25
2022-11-16T01:52:54.252Z,19.42
2022-11-16T01:55:22.474Z,19.77
2022-11-16T01:58:04.401Z,21.75
2022-11-16T02:00:33.022Z,17.95
2022-11-16T02:03:19.027Z,18.30
2022-11-16T02:05:49.002Z,20.95
2022-11-16T02:08:40.372Z,19.65
2022-11-16T02:11:12.318Z,16.27
2022-11-16T02:13:51.556Z,23.40
2022-11-16T02:16:32.274Z,17.10
2022-11-16T02:19:11.367Z,19.95
2022-11-16T02:21:46.686Z,19.90
2022-11-16T02:24:17.122Z,18.42
2022-11-16T02:26:52.526Z,21.55
2022-11-16T02:29:20.742Z,20.63
2022-11-16T02:31:54.136Z,19.23
2022-11-16T02:34:22.684Z,21.00
2022-11-16T02:36:51.689Z,23.67
2022-11-16T02:39:19.640Z,20.42
2022-11-16T02:41:48.105Z,26.10
2022-11-16T02:44:18.203Z,26.45
2022-11-16T02:46:46.741Z,19.67
2022-11-16T02:49:17.730Z,27.02
2022-11-16T02:51:45.934Z,20.35
2022-11-16T02:54:16.110Z,21.45
2022-11-16T02:56:54.077Z,21.75
2022-11-16T02:59:25.781Z,22.67
2022-11-16T03:01:57.924Z,20.17
2022-11-16T03:04:35.749Z,28.52
2022-11-16T03:07:04.241Z,21.60
2022-11-16T03:09:31.758Z,29.75
2022-11-16T03:11:59.626Z,24.35
2022-11-16T03:14:36.844Z,21.50
2022-11-16T03:17:04.694Z,20.95
2022-11-16T03:19:39.546Z,20.52
2022-11-16T03:22:06.211Z,19.02
2022-11-16T03:24:34.661Z,23.15
2022-11-16T03:27:23.938Z,21.52
2022-11-16T03:30:10.540Z,25.65
2022-11-16T03:32:49.013Z,23.38
2022-11-16T03:35:19.710Z,24.13
2022-11-16T03:37:47.909Z,22.35
2022-11-16T03:40:15.464Z,21.30
2022-11-16T03:42:42.868Z,26.15
2022-11-16T03:45:10.847Z,26.75
2022-11-16T03:47:37.228Z,26.40
2022-11-16T03:50:03.981Z,22.98
2022-11-16T03:52:31.135Z,20.90
2022-11-16T03:54:58.269Z,26.30
2022-11-16T03:57:25.579Z,26.80
2022-11-16T03:59:55.773Z,24.75
2022-11-16T04:02:22.637Z,25.38
2022-11-16T04:05:09.595Z,26.33
2022-11-16T04:07:58.680Z,26.23
2022-11-16T04:10:43.892Z,26.40
2022-11-16T04:13:30.865Z,26.40
2022-11-16T04:16:35.328Z,29.30
2022-11-16T04:19:23.774Z,26.98
2022-11-16T04:22:14.050Z,19.80
2022-11-16T04:24:42.002Z,20.70
2022-11-16T04:27:28.183Z,21.95
2022-11-16T04:29:56.715Z,23.83
2022-11-16T04:32:43.334Z,31.33
2022-11-16T04:35:28.593Z,22.73
2022-11-16T04:37:57.181Z,18.05
2022-11-16T04:40:30.823Z,27.92
2022-11-16T04:42:59.225Z,22.25
2022-11-16T04:45:46.923Z,20.52
2022-11-16T04:48:16.050Z,20.30
2022-11-16T04:50:44.287Z,17.10
2022-11-16T04:53:10.916Z,18.23
2022-11-16T04:55:44.459Z,21.02
2022-11-16T04:58:11.182Z,16.83
2022-11-16T05:00:38.341Z,16.35
2022-11-16T05:03:05.094Z,17.45
2022-11-16T05:05:32.433Z,19.80
2022-11-16T05:07:59.883Z,19.83
2022-11-16T05:10:28.851Z,13.73
2022-11-16T05:12:55.612Z,24.45
2022-11-16T05:15:23.246Z,18.88
2022-11-16T05:17:51.431Z,13.98
2022-11-16T05:20:40.555Z,14.50
2022-11-16T05:23:27.818Z,22.80
2022-11-16T05:25:55.650Z,16.48
2022-11-16T05:28:22.620Z,19.42
2022-11-16T05:30:49.384Z,19.45
2022-11-16T05:33:19.922Z,17.02
2022-11-16T05:35:48.944Z,18.92
2022-11-16T05:38:15.349Z,21.38
2022-11-16T05:40:45.828Z,21.45
2022-11-16T05:43:12.235Z,19.63
2022-11-16T05:45:46.793Z,26.23
2022-11-16T05:48:15.231Z,18.52
2022-11-16T05:50:43.119Z,20.08
2022-11-16T05:53:24.361Z,21.40
2022-11-16T05:55:51.122Z,19.25
2022-11-16T05:58:18.765Z,18.98
2022-11-16T06:00:48.640Z,28.33
2022-11-16T06:03:16.735Z,22.48
2022-11-16T06:05:43.312Z,23.58
2022-11-16T06:08:12.244Z,17.33
2022-11-16T06:10:38.595Z,23.55
2022-11-16T06:13:05.642Z,27.38
2022-11-16T06:15:36.125Z,20.75
2022-11-16T06:18:02.571Z,19.17
2022-11-16T06:20:29.504Z,22.30
2022-11-16T06:22:56.384Z,23.88
2022-11-16T06:25:22.735Z,16.58
2022-11-16T06:27:49.088Z,23.80
2022-11-16T06:30:17.450Z,21.75
2022-11-16T06:32:44.717Z,24.73
2022-11-16T06:35:11.198Z,20.40
2022-11-16T06:37:38.588Z,24.33
2022-11-16T06:40:06.155Z,26.48
2022-11-16T06:42:36.189Z,26.77
2022-11-16T06:45:02.843Z,23.73
2022-11-16T06:47:35.965Z,23.38
2022-11-16T06:50:02.474Z,29.15
2022-11-16T06:52:29.255Z,25.60
2022-11-16T06:54:55.669Z,27.95
2022-11-16T06:57:22.011Z,25.38
2022-11-16T06:59:48.919Z,25.40
2022-11-16T07:02:16.212Z,29.27
2022-11-16T07:04:44.333Z,22.75
2022-11-16T07:07:10.698Z,26.85
2022-11-16T07:09:38.083Z,28.08
2022-11-16T07:12:04.834Z,25.98
2022-11-16T07:14:35.981Z,27.98
2022-11-16T07:17:09.323Z,26.13
2022-11-16T07:19:36.807Z,25.38
2022-11-16T07:22:04.192Z,24.70
2022-11-16T07:24:31.373Z,25.63
2022-11-16T07:26:57.887Z,29.90
2022-11-16T07:29:26.617Z,23.38
2022-11-16T07:32:22.225Z,28.02
2022-11-16T07:35:02.101Z,26.00
2022-11-16T07:37:30.673Z,24.60
2022-11-16T07:39:57.353Z,22.85
2022-11-16T07:42:24.786Z,18.98
2022-11-16T07:45:07.235Z,15.13
2022-11-16T07:47:38.391Z,20.27
2022-11-16T07:50:07.605Z,21.27
2022-11-16T07:52:35.050Z,15.20
2022-11-16T07:55:06.665Z,16.13
2022-11-16T07:57:34.113Z,21.05
2022-11-16T08:00:05.449Z,22.80
2022-11-16T08:02:43.383Z,14.82
2022-11-16T08:05:16.510Z,18.02
2022-11-16T08:07:43.228Z,18.38
2022-11-16T08:10:09.741Z,15.30
2022-11-16T08:12:36.195Z,15.10
2022-11-16T08:15:02.858Z,14.30
2022-11-16T08:17:29.617Z,18.45
2022-11-16T08:19:57.785Z,15.00
2022-11-16T08:22:24.599Z,12.98
2022-11-16T08:24:51.963Z,13.90
2022-11-16T08:27:18.394Z,20.90
2022-11-16T08:29:49.394Z,13.60
2022-11-16T08:32:15.876Z,13.63
2022-11-16T08:34:43.329Z,18.27
2022-11-16T08:37:10.661Z,9.18
2022-11-16T08:39:41.535Z,14.18
2022-11-16T08:42:11.633Z,12.98
2022-11-16T08:44:39.257Z,10.18
2022-11-16T08:49:44.007Z,9.55
2022-11-16T08:52:15.009Z,12.18
2022-11-16T08:54:42.793Z,19.70
2022-11-16T08:57:09.371Z,10.75
2022-11-16T08:59:37.980Z,18.65
2022-11-16T09:04:37.200Z,12.90
2022-11-16T09:07:03.891Z,14.63
2022-11-16T09:09:30.221Z,13.93
2022-11-16T09:11:56.696Z,11.27
2022-11-16T09:14:23.384Z,15.55
2022-11-16T09:16:49.798Z,10.07
2022-11-16T09:19:16.174Z,12.27
2022-11-16T09:21:44.384Z,11.13
2022-11-16T09:24:11.706Z,13.77
2022-11-16T09:26:38.014Z,10.93
2022-11-16T09:29:04.354Z,14.07
2022-11-16T09:31:32.612Z,12.32
2022-11-16T09:33:59.338Z,11.73
2022-11-16T09:36:26.490Z,13.48
2022-11-16T09:39:23.760Z,10.70
2022-11-16T09:41:59.678Z,13.27
2022-11-16T09:44:38.637Z,10.35
2022-11-16T09:47:08.842Z,11.25
2022-11-16T09:49:40.534Z,10.27
2022-11-16T09:52:10.280Z,7.68
2022-11-16T09:54:39.383Z,14.02
2022-11-16T09:57:12.198Z,11.18
2022-11-16T09:59:47.763Z,14.30
2022-11-16T10:02:14.059Z,9.35
2022-11-16T10:04:43.812Z,9.75
2022-11-16T10:07:16.062Z,8.52
2022-11-16T10:09:43.515Z,11.13
2022-11-16T10:12:09.806Z,9.45
2022-11-16T10:14:48.227Z,12.13
2022-11-16T10:17:24.913Z,13.07
2022-11-16T10:19:56.541Z,13.23
2022-11-16T10:22:42.559Z,18.42
2022-11-16T10:25:15.568Z,12.15
2022-11-16T10:28:00.806Z,12.07
2022-11-16T10:30:27.353Z,11.02
2022-11-16T10:32:56.404Z,13.52
2022-11-16T10:35:22.711Z,13.40
2022-11-16T10:37:49.793Z,9.63
2022-11-16T10:40:18.409Z,14.00
2022-11-16T10:42:46.883Z,9.52
2022-11-16T10:45:17.926Z,13.30
2022-11-16T10:50:31.770Z,11.38
2022-11-16T10:52:58.685Z,10.15
2022-11-16T10:55:25.230Z,12.50
2022-11-16T10:57:59.122Z,8.18
2022-11-16T11:00:44.128Z,10.00
2022-11-16T11:03:11.955Z,6.25
2022-11-16T11:05:47.165Z,9.23
2022-11-16T11:08:23.811Z,10.32
2022-11-16T11:10:57.333Z,9.95
2022-11-16T11:13:26.288Z,11.00
2022-11-16T11:15:53.190Z,12.10
2022-11-16T11:18:31.655Z,10.68
2022-11-16T11:20:58.089Z,10.05
2022-11-16T11:23:25.232Z,8.50
2022-11-16T11:25:55.734Z,11.85
2022-11-16T11:28:29.335Z,9.10
2022-11-16T11:30:57.627Z,9.00
2022-11-16T11:33:25.548Z,7.57
2022-11-16T11:36:13.220Z,6.22
2022-11-16T11:38:58.396Z,6.00
2022-11-16T11:41:24.949Z,6.65
2022-11-16T11:44:01.120Z,6.03
2022-11-16T11:46:50.213Z,6.43
2022-11-16T11:49:33.283Z,11.45
2022-11-16T11:52:03.415Z,9.63
2022-11-16T11:54:32.757Z,9.38
2022-11-16T11:57:00.698Z,7.38
2022-11-16T11:59:27.340Z,8.85
2022-11-16T12:02:03.285Z,11.13
2022-11-16T12:04:52.907Z,13.48
2022-11-16T12:07:26.361Z,5.97
2022-11-16T12:10:15.712Z,9.85
2022-11-16T12:12:53.921Z,9.63
2022-11-16T12:15:29.527Z,7.30
2022-11-16T12:18:10.965Z,9.52
2022-11-16T12:20:50.453Z,6.68
2022-11-16T12:23:40.042Z,7.45
2022-11-16T12:26:25.005Z,9.90
2022-11-16T12:29:06.858Z,5.90
2022-11-16T12:31:45.514Z,12.20
2022-11-16T12:34:19.896Z,7.00
2022-11-16T12:37:04.666Z,8.43
2022-11-16T12:39:35.621Z,8.05
2022-11-16T12:42:07.042Z,10.32
2022-11-16T12:44:42.963Z,10.68
2022-11-16T12:47:18.641Z,6.50
2022-11-16T12:50:07.938Z,7.13
2022-11-16T12:52:44.979Z,7.35
2022-11-16T12:55:28.678Z,7.30
2022-11-16T12:58:07.386Z,7.57
2022-11-16T13:00:45.185Z,11.38
2022-11-16T13:03:14.672Z,10.32
2022-11-16T13:05:48.752Z,9.27
2022-11-16T13:08:18.089Z,9.10
2022-11-16T13:10:46.760Z,3.97
2022-11-16T13:13:35.480Z,6.57
2022-11-16T13:16:05.021Z,7.13
2022-11-16T13:18:33.245Z,3.83
2022-11-16T13:21:11.192Z,5.68
2022-11-16T13:23:49.808Z,5.07
2022-11-16T13:26:22.277Z,6.43
2022-11-16T13:28:52.455Z,11.40
2022-11-16T13:31:28.582Z,10.53
2022-11-16T13:33:57.914Z,8.27
2022-11-16T13:36:30.359Z,13.05
2022-11-16T13:38:56.914Z,7.25
2022-11-16T13:41:28.460Z,6.95
2022-11-16T13:43:55.012Z,5.10
2022-11-16T13:46:53.608Z,12.13
2022-11-16T13:49:19.456Z,7.90
2022-11-16T13:51:56.381Z,7.78
2022-11-16T13:54:46.645Z,8.82
2022-11-16T13:57:21.174Z,5.28
2022-11-16T13:59:48.275Z,4.82
2022-11-16T14:02:31.651Z,8.07
2022-11-16T14:04:59.731Z,6.40
2022-11-16T14:07:30.870Z,8.23
2022-11-16T14:09:57.227Z,5.25
2022-11-16T14:12:51.666Z,4.95
2022-11-16T14:15:27.256Z,3.80
2022-11-16T14:18:03.785Z,10.93
2022-11-16T14:20:44.399Z,6.28
2022-11-16T14:23:11.367Z,5.15
2022-11-16T14:25:49.033Z,9.25
2022-11-16T14:28:33.765Z,4.65
2022-11-16T14:31:09.691Z,6.10
2022-11-16T14:33:37.494Z,8.52
2022-11-16T14:36:05.961Z,6.40
2022-11-16T14:38:33.908Z,12.43
2022-11-16T14:41:02.082Z,6.97
2022-11-16T14:43:31.364Z,8.23
2022-11-16T14:46:00.310Z,9.25
2022-11-16T14:48:27.691Z,5.75
2022-11-16T14:51:12.431Z,6.45
2022-11-16T14:53:40.865Z,11.15
2022-11-16T14:56:07.327Z,6.38
2022-11-16T14:58:33.871Z,6.93
2022-11-16T15:01:02.037Z,7.90
2022-11-16T15:03:31.151Z,7.47
2022-11-16T15:05:59.125Z,4.88
2022-11-16T15:08:30.879Z,5.43
2022-11-16T15:10:57.394Z,8.05
2022-11-16T15:13:24.250Z,7.93
2022-11-16T15:16:08.081Z,8.60
2022-11-16T15:18:34.390Z,10.23
2022-11-16T15:21:00.739Z,36.58
2022-11-16T15:23:30.593Z,28.02
2022-11-16T15:26:00.048Z,27.43
2022-11-16T15:28:30.562Z,13.32
2022-11-16T15:30:58.232Z,8.05
2022-11-16T15:33:29.459Z,9.73
2022-11-16T15:35:56.393Z,8.18
2022-11-16T15:38:27.598Z,6.10
2022-11-16T15:40:55.806Z,7.82
2022-11-16T15:43:23.979Z,9.50
2022-11-16T15:45:50.775Z,9.48
2022-11-16T15:48:19.458Z,7.13
2022-11-16T15:51:05.062Z,7.68
2022-11-16T15:53:50.432Z,12.05
2022-11-16T15:56:18.841Z,9.57
2022-11-16T15:58:46.141Z,7.13
2022-11-16T16:01:13.832Z,10.10
2022-11-16T16:03:45.935Z,9.23
2022-11-16T16:06:35.113Z,6.72
2022-11-16T16:09:04.925Z,7.65
2022-11-16T16:11:31.303Z,6.18
2022-11-16T16:13:58.992Z,11.68
2022-11-16T16:16:28.089Z,9.82
2022-11-16T16:18:56.239Z,8.90
2022-11-16T16:21:22.827Z,7.93
2022-11-16T16:23:50.302Z,10.75
2022-11-16T16:26:17.265Z,7.18
2022-11-16T16:28:44.085Z,5.68
2022-11-16T16:31:10.864Z,9.05
2022-11-16T16:33:37.402Z,8.20
2022-11-16T16:36:04.297Z,8.82
2022-11-16T16:38:30.675Z,7.68
2022-11-16T16:41:02.010Z,8.40
2022-11-16T16:43:28.821Z,8.40
2022-11-16T16:45:55.488Z,8.30
2022-11-16T16:48:21.966Z,8.00
2022-11-16T16:50:48.546Z,8.07
2022-11-16T16:53:15.017Z,11.98
2022-11-16T16:55:42.511Z,11.70
2022-11-16T16:58:12.511Z,8.43
2022-11-16T17:00:39.300Z,11.77
2022-11-16T17:03:05.735Z,14.25
2022-11-16T17:05:35.254Z,7.68
2022-11-16T17:08:01.705Z,14.80
2022-11-16T17:10:28.413Z,12.50
2022-11-16T17:12:57.942Z,10.00
2022-11-16T17:15:24.703Z,24.02
2022-11-16T17:17:51.181Z,9.18
2022-11-16T17:20:17.661Z,14.15
2022-11-16T17:22:44.350Z,12.65
2022-11-16T17:25:10.697Z,8.48
2022-11-16T17:27:37.041Z,10.60
2022-11-16T17:30:03.939Z,11.38
2022-11-16T17:32:30.310Z,14.05
2022-11-16T17:34:56.628Z,8.85
2022-11-16T17:37:22.912Z,11.85
2022-11-16T17:39:49.285Z,11.63
2022-11-16T17:42:15.646Z,15.15
2022-11-16T17:44:41.921Z,10.80
2022-11-16T17:47:09.057Z,15.95
2022-11-16T17:49:35.444Z,9.68
2022-11-16T17:52:02.170Z,11.40
2022-11-16T17:54:29.084Z,14.95
2022-11-16T17:56:55.534Z,10.57
2022-11-16T17:59:25.058Z,10.00
2022-11-16T18:01:55.489Z,10.45
2022-11-16T18:04:21.774Z,10.80
2022-11-16T18:06:48.075Z,8.90
2022-11-16T18:09:14.408Z,11.52
2022-11-16T18:11:40.779Z,10.25
2022-11-16T18:14:07.363Z,12.23
2022-11-16T18:16:34.492Z,15.02
2022-11-16T18:19:02.202Z,8.70
2022-11-16T18:21:28.943Z,14.40
2022-11-16T18:23:55.688Z,11.43
2022-11-16T18:26:23.049Z,9.60
2022-11-16T18:28:50.412Z,13.75
2022-11-16T18:31:17.900Z,14.45
2022-11-16T18:33:44.518Z,11.32
2022-11-16T18:36:11.518Z,10.40
2022-11-16T18:38:37.960Z,10.75
2022-11-16T18:41:05.098Z,14.85
2022-11-16T18:43:31.854Z,10.68
2022-11-16T18:45:58.374Z,12.35
2022-11-16T18:48:24.746Z,11.35
2022-11-16T18:50:51.369Z,8.63
2022-11-16T18:53:17.771Z,12.07
2022-11-16T18:55:52.394Z,8.82
2022-11-16T18:58:49.384Z,12.93
2022-11-16T19:01:11.354Z,17.48
2022-11-16T19:03:37.800Z,9.55
2022-11-16T19:06:07.473Z,8.25
2022-11-16T19:08:34.108Z,12.07
2022-11-16T19:11:07.798Z,8.30
2022-11-16T19:13:34.424Z,11.80
2022-11-16T19:16:01.217Z,12.27
2022-11-16T19:18:27.758Z,8.05
2022-11-16T19:21:07.703Z,8.45
2022-11-16T19:23:44.452Z,8.65
2022-11-16T19:26:12.756Z,9.60
2022-11-16T19:28:39.974Z,7.50
2022-11-16T19:31:10.589Z,6.47
2022-11-16T19:33:37.335Z,7.45
2022-11-16T19:36:11.590Z,6.65
2022-11-16T19:38:38.114Z,11.38
2022-11-16T19:41:05.138Z,6.80
2022-11-16T19:43:31.965Z,4.95
2022-11-16T19:46:02.757Z,8.50
2022-11-16T19:48:29.984Z,9.32
2022-11-16T19:50:56.311Z,5.20
2022-11-16T19:53:22.634Z,6.47
2022-11-16T19:55:54.978Z,4.07
2022-11-16T19:58:21.281Z,8.20
2022-11-16T20:00:47.665Z,5.50
2022-11-16T20:03:14.044Z,8.38
2022-11-16T20:05:40.382Z,10.77
2022-11-16T20:08:06.790Z,8.25
2022-11-16T20:10:33.263Z,11.77
2022-11-16T20:12:59.524Z,8.75
2022-11-16T20:15:25.922Z,6.40
2022-11-16T20:17:52.595Z,6.35
2022-11-16T20:20:18.918Z,7.47
2022-11-16T20:22:47.060Z,5.38
2022-11-16T20:25:13.426Z,7.95
2022-11-16T20:27:39.705Z,6.93
2022-11-16T20:30:09.466Z,6.82
2022-11-16T20:32:36.337Z,7.83
2022-11-16T20:35:02.705Z,6.00
2022-11-16T20:37:29.039Z,4.13
2022-11-16T20:39:57.076Z,4.68
2022-11-16T20:42:23.788Z,7.03
2022-11-16T20:44:50.138Z,7.72
2022-11-16T20:47:16.404Z,8.20
2022-11-16T20:49:42.682Z,6.40
2022-11-16T20:52:09.040Z,6.38
2022-11-16T20:54:35.371Z,6.68
2022-11-16T20:57:01.769Z,5.70
2022-11-16T20:59:28.137Z,6.32
2022-11-16T21:01:55.024Z,5.15
2022-11-16T21:04:21.725Z,7.35
2022-11-16T21:06:48.026Z,8.80
2022-11-16T21:09:22.383Z,3.58
2022-11-16T21:12:07.781Z,7.95
2022-11-16T21:14:34.054Z,7.15
2022-11-16T21:17:00.354Z,5.78
2022-11-16T21:19:26.642Z,5.60
2022-11-16T21:21:52.925Z,5.22
2022-11-16T21:24:19.226Z,4.78
2022-11-16T21:26:45.577Z,4.20
2022-11-16T21:29:11.864Z,9.15
2022-11-16T21:31:38.203Z,6.70
2022-11-16T21:34:05.707Z,10.98
2022-11-16T21:36:32.339Z,7.03
2022-11-16T21:38:58.834Z,5.35
2022-11-16T21:41:26.073Z,8.88
2022-11-16T21:43:52.543Z,8.38
2022-11-16T21:46:20.069Z,9.98
2022-11-16T21:48:51.283Z,4.82
2022-11-16T21:51:18.685Z,9.13
2022-11-16T21:53:45.216Z,6.03
2022-11-16T21:56:13.554Z,4.85
2022-11-16T21:58:39.992Z,7.25
2022-11-16T22:01:06.378Z,3.85
2022-11-16T22:03:33.082Z,5.03
2022-11-16T22:06:19.288Z,5.90
2022-11-16T22:08:45.921Z,2.92
2022-11-16T22:11:12.737Z,6.25
2022-11-16T22:13:39.474Z,6.18
2022-11-16T22:16:06.453Z,5.28
2022-11-16T22:18:32.954Z,12.23
2022-11-16T22:21:00.607Z,6.30
2022-11-16T22:23:29.566Z,7.53
2022-11-16T22:26:00.307Z,7.13
2022-11-16T22:28:26.603Z,6.65
2022-11-16T22:30:59.603Z,6.88
2022-11-16T22:33:25.955Z,5.95
2022-11-16T22:35:52.280Z,10.23
2022-11-16T22:38:18.610Z,7.55
2022-11-16T22:40:48.842Z,5.95
2022-11-16T22:43:15.108Z,4.60
2022-11-16T22:45:41.393Z,7.28
2022-11-16T22:48:07.669Z,10.10
2022-11-16T22:50:34.021Z,8.57
2022-11-16T22:53:00.316Z,8.38
2022-11-16T22:55:26.756Z,8.63
2022-11-16T22:57:53.098Z,9.20
2022-11-16T23:00:19.931Z,8.95
2022-11-16T23:02:46.255Z,5.85
2022-11-16T23:05:12.833Z,10.75
2022-11-16T23:07:41.258Z,9.93
2022-11-16T23:10:07.794Z,9.07
2022-11-16T23:12:52.543Z,8.07
2022-11-16T23:15:37.341Z,5.75
2022-11-16T23:18:03.702Z,8.93
2022-11-16T23:20:48.619Z,7.88
2022-11-16T23:23:35.891Z,9.45
2022-11-16T23:26:23.003Z,10.38
2022-11-16T23:28:49.701Z,9.05
2022-11-16T23:31:16.118Z,11.43
2022-11-16T23:33:45.161Z,10.90
2022-11-16T23:36:12.445Z,11.57
2022-11-16T23:38:39.111Z,11.90
2022-11-16T23:41:24.600Z,9.77
2022-11-16T23:44:00.290Z,7.25
2022-11-16T23:46:30.957Z,10.45
2022-11-16T23:48:57.447Z,8.25
2022-11-16T23:51:24.489Z,7.35
2022-11-16T23:53:51.622Z,9.05
2022-11-16T23:56:18.834Z,12.50
2022-11-16T23:58:45.347Z,7.60
